createdAt,value
2019-03-23T00:00:09.880Z,89
2019-03-23T00:01:11.914Z,89
2019-03-23T00:02:13.950Z,89
2019-03-23T00:03:15.967Z,89
2019-03-23T00:04:18.014Z,89
2019-03-23T00:05:20.043Z,89
2019-03-23T00:06:31.844Z,89
2019-03-23T00:07:33.894Z,89
2019-03-23T00:08:35.926Z,89
2019-03-23T00:09:37.960Z,89
2019-03-23T00:10:40.000Z,89
2019-03-23T00:11:42.034Z,89
2019-03-23T00:12:44.056Z,89
2019-03-23T00:13:46.093Z,89
2019-03-23T00:14:48.115Z,89
2019-03-23T00:15:50.147Z,89
2019-03-23T00:16:52.463Z,89
2019-03-23T00:17:54.775Z,89
2019-03-23T00:18:56.857Z,89
2019-03-23T00:19:59.739Z,89
2019-03-23T00:21:01.980Z,89
2019-03-23T00:22:04.230Z,89
2019-03-23T00:23:06.398Z,89
2019-03-23T00:24:08.441Z,89
2019-03-23T00:25:10.475Z,89
2019-03-23T00:26:14.602Z,89
2019-03-23T00:27:16.683Z,89
2019-03-23T00:28:18.994Z,89
2019-03-23T00:29:21.320Z,89
2019-03-23T00:30:23.648Z,89
2019-03-23T00:31:26.448Z,89
2019-03-23T00:32:28.777Z,89
2019-03-23T00:33:31.090Z,89
2019-03-23T00:34:33.129Z,89
2019-03-23T00:35:35.157Z,89
2019-03-23T00:36:42.674Z,89
2019-03-23T00:37:44.693Z,89
2019-03-23T00:38:47.124Z,89
2019-03-23T00:39:49.159Z,89
2019-03-23T00:40:51.190Z,89
2019-03-23T00:41:53.226Z,89
2019-03-23T00:42:55.271Z,89
2019-03-23T00:43:57.601Z,89
2019-03-23T00:44:59.634Z,89
2019-03-23T00:46:01.953Z,89
2019-03-23T00:47:04.971Z,89
2019-03-23T00:48:06.998Z,89
2019-03-23T00:49:09.025Z,89
2019-03-23T00:50:11.116Z,89
2019-03-23T00:51:13.150Z,89
2019-03-23T00:52:15.181Z,89
2019-03-23T00:53:17.224Z,89
2019-03-23T00:54:19.261Z,89
2019-03-23T00:55:21.290Z,89
2019-03-23T00:56:23.322Z,89
2019-03-23T00:57:25.351Z,89
2019-03-23T00:58:27.772Z,89
2019-03-23T00:59:30.083Z,89
2019-03-23T01:00:32.117Z,89
2019-03-23T01:01:34.135Z,89
2019-03-23T01:02:36.212Z,89
2019-03-23T01:03:38.527Z,89
2019-03-23T01:04:40.551Z,89
2019-03-23T01:05:42.588Z,89
2019-03-23T01:06:53.459Z,89
2019-03-23T01:07:55.878Z,89
2019-03-23T01:08:58.198Z,89
2019-03-23T01:10:00.718Z,89
2019-03-23T01:11:02.744Z,90
2019-03-23T01:12:04.778Z,89
2019-03-23T01:13:07.110Z,89
2019-03-23T01:14:09.137Z,89
2019-03-23T01:15:11.171Z,89
2019-03-23T01:16:13.209Z,89
2019-03-23T01:17:15.237Z,90
2019-03-23T01:18:17.268Z,90
2019-03-23T01:19:19.307Z,89
2019-03-23T01:20:21.331Z,90
2019-03-23T01:21:23.364Z,90
2019-03-23T01:22:25.966Z,90
2019-03-23T01:23:28.297Z,90
2019-03-23T01:24:30.320Z,90
2019-03-23T01:25:32.344Z,90
2019-03-23T01:26:34.388Z,90
2019-03-23T01:27:36.803Z,90
2019-03-23T01:28:38.834Z,90
2019-03-23T01:29:40.869Z,90
2019-03-23T01:30:43.176Z,90
2019-03-23T01:31:45.220Z,90
2019-03-23T01:32:47.641Z,90
2019-03-23T01:33:49.689Z,90
2019-03-23T01:34:51.703Z,90
2019-03-23T01:35:53.753Z,90
2019-03-23T01:37:03.838Z,90
2019-03-23T01:38:05.869Z,90
2019-03-23T01:39:07.916Z,90
2019-03-23T01:40:09.935Z,90
2019-03-23T01:41:11.974Z,90
2019-03-23T01:42:14.010Z,90
2019-03-23T01:43:16.366Z,90
2019-03-23T01:44:18.383Z,90
2019-03-23T01:45:20.417Z,90
2019-03-23T01:46:22.496Z,90
2019-03-23T01:47:24.818Z,90
2019-03-23T01:48:26.862Z,90
2019-03-23T01:49:28.890Z,90
2019-03-23T01:50:30.942Z,90
2019-03-23T01:51:33.249Z,90
2019-03-23T01:52:35.295Z,90
2019-03-23T01:53:37.598Z,90
2019-03-23T01:54:39.634Z,90
2019-03-23T01:55:41.670Z,90
2019-03-23T01:56:43.696Z,90
2019-03-23T01:57:45.733Z,91
2019-03-23T01:58:47.758Z,90
2019-03-23T01:59:50.092Z,90
2019-03-23T02:00:52.123Z,90
2019-03-23T02:01:54.430Z,90
2019-03-23T02:02:56.850Z,90
2019-03-23T02:03:59.167Z,90
2019-03-23T02:05:01.209Z,90
2019-03-23T02:06:03.532Z,90
2019-03-23T02:07:15.272Z,90
2019-03-23T02:08:17.572Z,90
2019-03-23T02:09:19.647Z,90
2019-03-23T02:10:21.675Z,91
2019-03-23T02:11:23.706Z,91
2019-03-23T02:12:25.753Z,91
2019-03-23T02:13:27.774Z,91
2019-03-23T02:14:29.802Z,91
2019-03-23T02:15:31.835Z,91
2019-03-23T02:16:33.878Z,91
2019-03-23T02:17:35.901Z,91
2019-03-23T02:18:38.020Z,91
2019-03-23T02:19:40.051Z,91
2019-03-23T02:20:42.494Z,91
2019-03-23T02:21:44.532Z,91
2019-03-23T02:22:46.554Z,91
2019-03-23T02:23:48.580Z,91
2019-03-23T02:24:50.888Z,91
2019-03-23T02:25:52.933Z,91
2019-03-23T02:26:54.965Z,91
2019-03-23T02:27:57.000Z,91
2019-03-23T02:28:59.309Z,91
2019-03-23T02:30:02.047Z,91
2019-03-23T02:31:08.507Z,91
2019-03-23T02:32:10.858Z,91
2019-03-23T02:33:12.892Z,91
2019-03-23T02:34:15.643Z,91
2019-03-23T02:35:18.592Z,91
2019-03-23T02:36:20.923Z,91
2019-03-23T02:37:29.400Z,91
2019-03-23T02:38:31.761Z,91
2019-03-23T02:39:34.474Z,91
2019-03-23T02:40:36.520Z,91
2019-03-23T02:41:38.868Z,91
2019-03-23T02:42:41.401Z,91
2019-03-23T02:43:44.406Z,91
2019-03-23T02:44:46.838Z,91
2019-03-23T02:45:48.942Z,91
2019-03-23T02:46:51.033Z,91
2019-03-23T02:47:53.369Z,91
2019-03-23T02:48:55.699Z,91
2019-03-23T02:49:58.718Z,91
2019-03-23T02:51:01.081Z,91
2019-03-23T02:52:03.128Z,91
2019-03-23T02:53:05.833Z,91
2019-03-23T02:54:07.874Z,91
2019-03-23T02:55:09.928Z,91
2019-03-23T02:56:12.396Z,91
2019-03-23T02:57:14.762Z,91
2019-03-23T02:58:17.105Z,91
2019-03-23T02:59:19.692Z,91
2019-03-23T03:00:22.037Z,91
2019-03-23T03:01:24.080Z,91
2019-03-23T03:02:26.112Z,91
2019-03-23T03:03:28.159Z,91
2019-03-23T03:04:30.648Z,91
2019-03-23T03:05:32.688Z,91
2019-03-23T03:06:34.739Z,91
2019-03-23T03:07:45.064Z,91
2019-03-23T03:08:47.375Z,91
2019-03-23T03:09:49.730Z,91
2019-03-23T03:10:52.187Z,91
2019-03-23T03:11:54.260Z,91
2019-03-23T03:12:56.597Z,91
2019-03-23T03:13:59.204Z,91
2019-03-23T03:15:01.936Z,91
2019-03-23T03:16:04.631Z,91
2019-03-23T03:17:06.679Z,91
2019-03-23T03:18:09.023Z,90
2019-03-23T03:19:11.349Z,91
2019-03-23T03:20:13.406Z,91
2019-03-23T03:21:15.443Z,91
2019-03-23T03:22:17.788Z,91
2019-03-23T03:23:20.123Z,91
2019-03-23T03:24:22.181Z,91
2019-03-23T03:25:24.517Z,91
2019-03-23T03:26:26.858Z,91
2019-03-23T03:27:28.918Z,91
2019-03-23T03:28:31.593Z,91
2019-03-23T03:29:33.926Z,91
2019-03-23T03:30:36.418Z,91
2019-03-23T03:31:39.803Z,91
2019-03-23T03:32:42.249Z,91
2019-03-23T03:33:44.752Z,91
2019-03-23T03:34:47.496Z,91
2019-03-23T03:35:49.886Z,91
2019-03-23T03:36:52.240Z,91
2019-03-23T03:37:58.158Z,91
2019-03-23T03:39:00.226Z,91
2019-03-23T03:40:02.989Z,91
2019-03-23T03:41:05.665Z,91
2019-03-23T03:42:07.988Z,91
2019-03-23T03:43:10.696Z,91
2019-03-23T03:44:13.019Z,91
2019-03-23T03:45:15.344Z,91
2019-03-23T03:46:17.684Z,91
2019-03-23T03:47:20.025Z,91
2019-03-23T03:48:22.055Z,91
2019-03-23T03:49:24.412Z,91
2019-03-23T03:50:27.226Z,91
2019-03-23T03:51:29.722Z,91
2019-03-23T03:52:32.141Z,91
2019-03-23T03:53:34.208Z,91
2019-03-23T03:54:36.667Z,91
2019-03-23T03:55:39.032Z,91
2019-03-23T03:56:41.723Z,92
2019-03-23T03:57:44.105Z,92
2019-03-23T03:58:47.467Z,92
2019-03-23T03:59:49.510Z,92
2019-03-23T04:00:51.858Z,92
2019-03-23T04:01:53.913Z,92
2019-03-23T04:02:56.237Z,91
2019-03-23T04:03:58.278Z,91
2019-03-23T04:05:00.530Z,92
2019-03-23T04:06:02.588Z,92
2019-03-23T04:07:04.646Z,92
2019-03-23T04:08:13.257Z,92
2019-03-23T04:09:15.305Z,92
2019-03-23T04:10:18.465Z,92
2019-03-23T04:11:20.798Z,91
2019-03-23T04:12:23.516Z,91
2019-03-23T04:13:25.573Z,92
2019-03-23T04:14:27.617Z,92
2019-03-23T04:15:29.648Z,92
2019-03-23T04:16:31.693Z,92
2019-03-23T04:17:34.020Z,91
2019-03-23T04:18:37.041Z,91
2019-03-23T04:19:39.166Z,92
2019-03-23T04:20:42.233Z,92
2019-03-23T04:21:44.551Z,92
2019-03-23T04:22:46.668Z,92
2019-03-23T04:23:48.714Z,92
2019-03-23T04:24:51.036Z,92
2019-03-23T04:25:53.125Z,92
2019-03-23T04:26:55.157Z,92
2019-03-23T04:27:57.263Z,92
2019-03-23T04:28:59.313Z,92
2019-03-23T04:30:02.540Z,92
2019-03-23T04:31:05.166Z,92
2019-03-23T04:32:07.473Z,92
2019-03-23T04:33:09.509Z,92
2019-03-23T04:34:11.869Z,92
2019-03-23T04:35:13.923Z,92
2019-03-23T04:36:15.971Z,92
2019-03-23T04:37:18.076Z,92
2019-03-23T04:38:24.655Z,92
2019-03-23T04:39:26.690Z,92
2019-03-23T04:40:29.327Z,92
2019-03-23T04:41:31.370Z,92
2019-03-23T04:42:33.400Z,92
2019-03-23T04:43:35.428Z,92
2019-03-23T04:44:37.465Z,92
2019-03-23T04:45:39.775Z,92
2019-03-23T04:46:44.147Z,92
2019-03-23T04:47:46.182Z,92
2019-03-23T04:48:48.212Z,92
2019-03-23T04:49:50.250Z,92
2019-03-23T04:50:52.282Z,92
2019-03-23T04:51:54.609Z,92
2019-03-23T04:52:56.640Z,92
2019-03-23T04:53:58.677Z,92
2019-03-23T04:55:00.855Z,92
2019-03-23T04:56:02.904Z,92
2019-03-23T04:57:05.209Z,91
2019-03-23T04:58:07.524Z,91
2019-03-23T04:59:10.236Z,91
2019-03-23T05:00:12.980Z,91
2019-03-23T05:01:15.025Z,91
2019-03-23T05:02:17.053Z,92
2019-03-23T05:03:19.110Z,92
2019-03-23T05:04:21.707Z,92
2019-03-23T05:05:23.741Z,92
2019-03-23T05:06:25.797Z,92
2019-03-23T05:07:27.830Z,92
2019-03-23T05:08:34.556Z,92
2019-03-23T05:09:36.588Z,92
2019-03-23T05:10:38.616Z,92
2019-03-23T05:11:40.644Z,92
2019-03-23T05:12:42.728Z,92
2019-03-23T05:13:45.030Z,92
2019-03-23T05:14:47.061Z,92
2019-03-23T05:15:49.095Z,92
2019-03-23T05:16:51.395Z,92
2019-03-23T05:17:53.429Z,92
2019-03-23T05:18:55.469Z,92
2019-03-23T05:19:57.495Z,92
2019-03-23T05:20:59.529Z,92
2019-03-23T05:22:01.590Z,92
2019-03-23T05:23:03.669Z,92
2019-03-23T05:24:05.712Z,92
2019-03-23T05:25:07.741Z,92
2019-03-23T05:26:09.774Z,92
2019-03-23T05:27:12.081Z,92
2019-03-23T05:28:14.420Z,92
2019-03-23T05:29:16.469Z,92
2019-03-23T05:30:18.528Z,92
2019-03-23T05:31:20.847Z,92
2019-03-23T05:32:22.879Z,92
2019-03-23T05:33:24.916Z,92
2019-03-23T05:34:26.946Z,92
2019-03-23T05:35:29.016Z,92
2019-03-23T05:36:31.044Z,92
2019-03-23T05:37:33.089Z,92
2019-03-23T05:38:45.588Z,92
2019-03-23T05:39:47.625Z,92
2019-03-23T05:40:49.665Z,92
2019-03-23T05:41:51.706Z,92
2019-03-23T05:42:53.735Z,92
2019-03-23T05:43:55.817Z,92
2019-03-23T05:44:57.853Z,92
2019-03-23T05:45:59.882Z,92
2019-03-23T05:47:01.938Z,92
2019-03-23T05:48:03.986Z,92
2019-03-23T05:49:06.022Z,92
2019-03-23T05:50:08.082Z,92
2019-03-23T05:51:10.556Z,92
2019-03-23T05:52:12.595Z,92
2019-03-23T05:53:14.615Z,92
2019-03-23T05:54:16.659Z,92
2019-03-23T05:55:18.695Z,92
2019-03-23T05:56:21.103Z,92
2019-03-23T05:57:23.143Z,92
2019-03-23T05:58:25.184Z,92
2019-03-23T05:59:27.229Z,92
2019-03-23T06:00:29.255Z,92
2019-03-23T06:01:31.316Z,92
2019-03-23T06:02:33.636Z,92
2019-03-23T06:03:35.673Z,92
2019-03-23T06:04:37.705Z,92
2019-03-23T06:05:40.017Z,92
2019-03-23T06:06:42.058Z,92
2019-03-23T06:07:44.083Z,92
2019-03-23T06:08:56.294Z,92
2019-03-23T06:09:58.315Z,92
2019-03-23T06:11:00.357Z,92
2019-03-23T06:12:02.405Z,92
2019-03-23T06:13:04.484Z,92
2019-03-23T06:14:06.555Z,92
2019-03-23T06:15:08.867Z,92
2019-03-23T06:16:10.910Z,92
2019-03-23T06:17:13.233Z,92
2019-03-23T06:18:15.263Z,92
2019-03-23T06:19:17.281Z,92
2019-03-23T06:20:19.701Z,92
2019-03-23T06:21:21.725Z,92
2019-03-23T06:22:23.764Z,92
2019-03-23T06:23:25.802Z,92
2019-03-23T06:24:27.841Z,92
2019-03-23T06:25:29.874Z,92
2019-03-23T06:26:31.912Z,92
2019-03-23T06:27:34.225Z,92
2019-03-23T06:28:36.258Z,92
2019-03-23T06:29:38.333Z,92
2019-03-23T06:30:40.652Z,92
2019-03-23T06:31:42.683Z,92
2019-03-23T06:32:44.713Z,92
2019-03-23T06:33:46.786Z,92
2019-03-23T06:34:49.132Z,92
2019-03-23T06:35:51.172Z,92
2019-03-23T06:36:53.224Z,92
2019-03-23T06:37:55.265Z,92
2019-03-23T06:39:07.285Z,92
2019-03-23T06:40:09.321Z,92
2019-03-23T06:41:11.755Z,92
2019-03-23T06:42:14.190Z,92
2019-03-23T06:43:16.208Z,92
2019-03-23T06:44:19.298Z,92
2019-03-23T06:45:21.322Z,92
2019-03-23T06:46:23.362Z,92
2019-03-23T06:47:25.399Z,92
2019-03-23T06:48:27.714Z,92
2019-03-23T06:49:30.034Z,92
2019-03-23T06:50:32.361Z,92
2019-03-23T06:51:34.394Z,91
2019-03-23T06:52:36.437Z,91
2019-03-23T06:53:38.487Z,91
2019-03-23T06:54:40.517Z,91
2019-03-23T06:55:42.546Z,91
2019-03-23T06:56:44.586Z,91
2019-03-23T06:57:46.626Z,91
2019-03-23T06:58:48.657Z,91
2019-03-23T06:59:50.707Z,90
2019-03-23T07:00:52.742Z,90
2019-03-23T07:01:54.767Z,90
2019-03-23T07:02:56.792Z,90
2019-03-23T07:03:58.829Z,90
2019-03-23T07:05:01.151Z,90
2019-03-23T07:06:03.565Z,90
2019-03-23T07:07:05.683Z,90
2019-03-23T07:08:07.731Z,90
2019-03-23T07:09:17.314Z,90
2019-03-23T07:10:19.628Z,90
2019-03-23T07:11:21.661Z,90
2019-03-23T07:12:23.689Z,90
2019-03-23T07:13:25.730Z,90
2019-03-23T07:14:28.170Z,90
2019-03-23T07:15:30.216Z,90
2019-03-23T07:16:32.243Z,90
2019-03-23T07:17:34.295Z,90
2019-03-23T07:18:36.324Z,90
2019-03-23T07:19:38.349Z,90
2019-03-23T07:20:40.385Z,90
2019-03-23T07:21:42.419Z,89
2019-03-23T07:22:44.453Z,89
2019-03-23T07:23:46.514Z,89
2019-03-23T07:24:48.550Z,89
2019-03-23T07:25:50.569Z,89
2019-03-23T07:26:52.608Z,89
2019-03-23T07:27:54.636Z,89
2019-03-23T07:28:56.671Z,89
2019-03-23T07:29:58.714Z,89
2019-03-23T07:31:00.748Z,89
2019-03-23T07:32:07.258Z,89
2019-03-23T07:33:09.686Z,88
2019-03-23T07:34:11.720Z,88
2019-03-23T07:35:14.141Z,89
2019-03-23T07:36:16.191Z,89
2019-03-23T07:37:18.213Z,89
2019-03-23T07:38:20.261Z,88
2019-03-23T07:39:31.269Z,88
2019-03-23T07:40:33.350Z,88
2019-03-23T07:41:35.385Z,88
2019-03-23T07:42:37.775Z,88
2019-03-23T07:43:39.808Z,88
2019-03-23T07:44:42.239Z,88
2019-03-23T07:45:44.663Z,88
2019-03-23T07:46:46.690Z,87
2019-03-23T07:47:48.748Z,88
2019-03-23T07:48:50.812Z,88
2019-03-23T07:49:53.148Z,88
2019-03-23T07:50:55.489Z,88
2019-03-23T07:51:57.524Z,87
2019-03-23T07:52:59.568Z,87
2019-03-23T07:54:03.849Z,87
2019-03-23T07:55:05.901Z,87
2019-03-23T07:56:07.943Z,87
2019-03-23T07:57:09.965Z,87
2019-03-23T07:58:11.997Z,87
2019-03-23T07:59:14.043Z,87
2019-03-23T08:00:16.473Z,87
2019-03-23T08:01:18.519Z,87
2019-03-23T08:02:20.564Z,87
2019-03-23T08:03:22.588Z,87
2019-03-23T08:04:24.631Z,87
2019-03-23T08:05:26.672Z,86
2019-03-23T08:06:28.697Z,86
2019-03-23T08:07:30.729Z,87
2019-03-23T08:08:32.773Z,87
2019-03-23T08:09:38.848Z,87
2019-03-23T08:10:41.377Z,86
2019-03-23T08:11:43.439Z,86
2019-03-23T08:12:45.478Z,86
2019-03-23T08:13:47.550Z,86
2019-03-23T08:14:49.633Z,86
2019-03-23T08:15:51.655Z,86
2019-03-23T08:16:53.695Z,85
2019-03-23T08:17:55.744Z,85
2019-03-23T08:18:57.781Z,86
2019-03-23T08:19:59.802Z,86
2019-03-23T08:21:02.053Z,86
2019-03-23T08:22:04.475Z,85
2019-03-23T08:23:06.518Z,86
2019-03-23T08:24:08.821Z,86
2019-03-23T08:25:10.865Z,85
2019-03-23T08:26:12.909Z,85
2019-03-23T08:27:14.928Z,85
2019-03-23T08:28:17.286Z,86
2019-03-23T08:29:19.312Z,84
2019-03-23T08:30:21.730Z,85
2019-03-23T08:31:23.771Z,85
2019-03-23T08:32:25.824Z,84
2019-03-23T08:33:27.850Z,84
2019-03-23T08:34:29.929Z,84
2019-03-23T08:35:32.249Z,83
2019-03-23T08:36:34.732Z,83
2019-03-23T08:37:36.769Z,83
2019-03-23T08:38:38.831Z,83
2019-03-23T08:39:49.843Z,83
2019-03-23T08:40:51.883Z,83
2019-03-23T08:41:53.928Z,82
2019-03-23T08:42:55.959Z,82
2019-03-23T08:44:55.796Z,83
2019-03-23T08:45:57.836Z,83
2019-03-23T08:46:59.872Z,83
2019-03-23T08:48:01.909Z,83
2019-03-23T08:49:04.234Z,83
2019-03-23T08:50:06.540Z,83
2019-03-23T08:51:09.256Z,83
2019-03-23T08:52:11.291Z,82
2019-03-23T08:53:13.325Z,82
2019-03-23T08:54:15.370Z,82
2019-03-23T08:55:17.412Z,82
2019-03-23T08:56:19.732Z,82
2019-03-23T08:57:21.762Z,82
2019-03-23T08:58:24.087Z,82
2019-03-23T08:59:26.140Z,82
2019-03-23T09:00:28.179Z,81
2019-03-23T09:01:30.210Z,82
2019-03-23T09:02:32.257Z,82
2019-03-23T09:03:34.292Z,82
2019-03-23T09:04:36.323Z,82
2019-03-23T09:05:38.657Z,82
2019-03-23T09:06:40.709Z,82
2019-03-23T09:07:42.737Z,81
2019-03-23T09:08:44.774Z,81
2019-03-23T09:09:46.814Z,82
2019-03-23T09:10:49.142Z,82
2019-03-23T09:11:51.177Z,82
2019-03-23T09:12:53.219Z,82
2019-03-23T09:13:55.251Z,81
2019-03-23T09:14:57.328Z,81
2019-03-23T09:15:59.370Z,81
2019-03-23T09:17:01.402Z,82
2019-03-23T09:18:03.445Z,81
2019-03-23T09:19:05.480Z,81
2019-03-23T09:20:07.794Z,81
2019-03-23T09:21:09.823Z,82
2019-03-23T09:22:11.884Z,82
2019-03-23T09:23:13.908Z,82
2019-03-23T09:24:15.953Z,81
2019-03-23T09:25:18.048Z,81
2019-03-23T09:26:20.351Z,81
2019-03-23T09:27:22.406Z,80
2019-03-23T09:28:24.832Z,81
2019-03-23T09:29:26.875Z,80
2019-03-23T09:30:28.946Z,80
2019-03-23T09:31:30.992Z,80
2019-03-23T09:32:33.041Z,80
2019-03-23T09:33:35.081Z,80
2019-03-23T09:34:37.125Z,80
2019-03-23T09:35:40.666Z,80
2019-03-23T09:36:42.713Z,80
2019-03-23T09:37:44.742Z,80
2019-03-23T09:38:46.805Z,80
2019-03-23T09:39:48.855Z,80
2019-03-23T09:40:50.892Z,80
2019-03-23T09:41:52.986Z,79
2019-03-23T09:42:55.596Z,79
2019-03-23T09:43:57.667Z,79
2019-03-23T09:44:59.985Z,79
2019-03-23T09:46:02.353Z,79
2019-03-23T09:47:04.374Z,79
2019-03-23T09:48:06.414Z,80
2019-03-23T09:49:08.764Z,79
2019-03-23T09:50:11.096Z,79
2019-03-23T09:51:13.149Z,80
2019-03-23T09:52:15.461Z,79
2019-03-23T09:53:17.541Z,79
2019-03-23T09:54:19.575Z,79
2019-03-23T09:55:21.616Z,79
2019-03-23T09:56:23.923Z,79
2019-03-23T09:57:25.966Z,79
2019-03-23T09:58:28.009Z,78
2019-03-23T09:59:30.054Z,78
2019-03-23T10:00:32.103Z,78
2019-03-23T10:01:34.149Z,78
2019-03-23T10:02:36.495Z,77
2019-03-23T10:03:38.516Z,78
2019-03-23T10:04:40.564Z,78
2019-03-23T10:05:42.600Z,78
2019-03-23T10:06:45.028Z,78
2019-03-23T10:07:47.095Z,78
2019-03-23T10:08:49.409Z,78
2019-03-23T10:09:51.453Z,78
2019-03-23T10:10:53.885Z,78
2019-03-23T10:11:55.962Z,79
2019-03-23T10:12:57.988Z,78
2019-03-23T10:14:00.087Z,77
2019-03-23T10:15:04.735Z,79
2019-03-23T10:16:06.770Z,78
2019-03-23T10:17:08.825Z,78
2019-03-23T10:18:10.873Z,78
2019-03-23T10:19:12.919Z,77
2019-03-23T10:20:14.969Z,77
2019-03-23T10:21:17.008Z,78
2019-03-23T10:22:19.046Z,77
2019-03-23T10:23:21.082Z,77
2019-03-23T10:24:23.118Z,77
2019-03-23T10:25:25.546Z,77
2019-03-23T10:26:27.583Z,77
2019-03-23T10:27:29.623Z,76
2019-03-23T10:28:31.649Z,75
2019-03-23T10:29:33.704Z,75
2019-03-23T10:30:35.741Z,75
2019-03-23T10:31:38.097Z,74
2019-03-23T10:32:40.152Z,75
2019-03-23T10:33:42.464Z,73
2019-03-23T10:34:44.503Z,74
2019-03-23T10:35:46.539Z,74
2019-03-23T10:36:48.589Z,72
2019-03-23T10:37:50.614Z,72
2019-03-23T10:38:52.671Z,72
2019-03-23T10:39:54.712Z,72
2019-03-23T10:40:56.782Z,71
2019-03-23T10:41:58.833Z,71
2019-03-23T10:43:00.879Z,71
2019-03-23T10:44:02.922Z,70
2019-03-23T10:45:04.971Z,70
2019-03-23T10:46:07.071Z,69
2019-03-23T10:47:09.108Z,67
2019-03-23T10:48:13.141Z,69
2019-03-23T10:49:15.190Z,68
2019-03-23T10:50:17.290Z,67
2019-03-23T10:51:19.717Z,67
2019-03-23T10:52:21.778Z,66
2019-03-23T10:53:24.339Z,66
2019-03-23T10:54:26.375Z,66
2019-03-23T10:55:28.454Z,66
2019-03-23T10:56:30.518Z,66
2019-03-23T10:57:32.628Z,67
2019-03-23T10:58:34.670Z,66
2019-03-23T10:59:37.008Z,66
2019-03-23T11:00:39.066Z,66
2019-03-23T11:01:41.101Z,66
2019-03-23T11:02:43.833Z,66
2019-03-23T11:03:45.870Z,67
2019-03-23T11:04:47.995Z,66
2019-03-23T11:05:50.041Z,66
2019-03-23T11:06:52.118Z,67
2019-03-23T11:07:54.162Z,65
2019-03-23T11:08:56.595Z,65
2019-03-23T11:09:58.694Z,65
2019-03-23T11:11:00.723Z,66
2019-03-23T11:12:02.808Z,67
2019-03-23T11:13:05.130Z,66
2019-03-23T11:14:07.521Z,67
2019-03-23T11:15:09.573Z,67
2019-03-23T11:16:11.628Z,67
2019-03-23T11:17:13.719Z,66
2019-03-23T11:18:15.768Z,67
2019-03-23T11:19:17.825Z,67
2019-03-23T11:20:20.245Z,66
2019-03-23T11:21:22.623Z,67
2019-03-23T11:22:24.681Z,68
2019-03-23T11:23:26.774Z,68
2019-03-23T11:24:29.267Z,67
2019-03-23T11:25:31.596Z,67
2019-03-23T11:26:34.089Z,67
2019-03-23T11:27:36.140Z,67
2019-03-23T11:28:38.186Z,68
2019-03-23T11:29:40.230Z,67
2019-03-23T11:30:42.283Z,67
2019-03-23T11:31:44.327Z,67
2019-03-23T11:32:46.372Z,68
2019-03-23T11:33:48.414Z,69
2019-03-23T11:34:50.825Z,68
2019-03-23T11:35:58.976Z,68
2019-03-23T11:37:01.401Z,68
2019-03-23T11:38:03.674Z,68
2019-03-23T11:39:06.053Z,69
2019-03-23T11:40:08.096Z,70
2019-03-23T11:41:10.138Z,70
2019-03-23T11:42:12.268Z,69
2019-03-23T11:43:14.643Z,69
2019-03-23T11:44:16.672Z,70
2019-03-23T11:45:18.752Z,70
2019-03-23T11:46:20.795Z,70
2019-03-23T11:47:23.140Z,70
2019-03-23T11:48:25.195Z,70
2019-03-23T11:49:27.578Z,70
2019-03-23T11:50:29.999Z,70
2019-03-23T11:51:32.034Z,70
2019-03-23T11:52:34.092Z,70
2019-03-23T11:53:36.139Z,70
2019-03-23T11:54:38.180Z,70
2019-03-23T11:55:40.230Z,70
2019-03-23T11:56:42.551Z,71
2019-03-23T11:57:45.021Z,70
2019-03-23T11:58:47.066Z,71
2019-03-23T11:59:49.094Z,71
2019-03-23T12:00:51.423Z,71
2019-03-23T12:01:53.473Z,72
2019-03-23T12:02:55.503Z,72
2019-03-23T12:03:57.560Z,71
2019-03-23T12:04:59.595Z,71
2019-03-23T12:06:01.643Z,71
2019-03-23T12:07:04.241Z,71
2019-03-23T12:08:06.311Z,71
2019-03-23T12:09:08.369Z,71
2019-03-23T12:10:10.441Z,71
2019-03-23T12:11:13.140Z,71
2019-03-23T12:12:15.178Z,71
2019-03-23T12:13:17.209Z,70
2019-03-23T12:14:19.255Z,71
2019-03-23T12:15:21.594Z,71
2019-03-23T12:16:23.647Z,71
2019-03-23T12:17:25.673Z,71
2019-03-23T12:18:27.719Z,71
2019-03-23T12:19:29.762Z,71
2019-03-23T12:20:31.790Z,70
2019-03-23T12:21:33.846Z,70
2019-03-23T12:22:36.169Z,71
2019-03-23T12:23:38.203Z,70
2019-03-23T12:24:40.233Z,70
2019-03-23T12:25:42.961Z,71
2019-03-23T12:26:44.995Z,72
2019-03-23T12:27:47.033Z,71
2019-03-23T12:28:49.070Z,71
2019-03-23T12:29:51.103Z,71
2019-03-23T12:30:53.423Z,71
2019-03-23T12:31:55.466Z,72
2019-03-23T12:32:57.796Z,71
2019-03-23T12:33:59.835Z,71
2019-03-23T12:35:01.879Z,71
2019-03-23T12:36:04.305Z,71
2019-03-23T12:37:06.352Z,71
2019-03-23T12:38:08.391Z,71
2019-03-23T12:39:10.426Z,71
2019-03-23T12:40:12.463Z,71
2019-03-23T12:41:24.224Z,71
2019-03-23T12:42:26.262Z,71
2019-03-23T12:43:28.308Z,71
2019-03-23T12:44:30.353Z,71
2019-03-23T12:45:32.386Z,71
2019-03-23T12:46:34.431Z,71
2019-03-23T12:47:36.476Z,71
2019-03-23T12:48:38.516Z,71
2019-03-23T12:49:40.832Z,71
2019-03-23T12:50:43.169Z,71
2019-03-23T12:51:45.205Z,71
2019-03-23T12:52:47.242Z,71
2019-03-23T12:53:49.290Z,71
2019-03-23T12:54:51.322Z,71
2019-03-23T12:55:53.361Z,71
2019-03-23T12:56:55.404Z,71
2019-03-23T12:57:57.870Z,71
2019-03-23T12:58:59.897Z,71
2019-03-23T13:00:01.943Z,71
2019-03-23T13:01:03.992Z,72
2019-03-23T13:02:06.410Z,72
2019-03-23T13:03:08.465Z,72
2019-03-23T13:04:10.501Z,72
2019-03-23T13:05:12.534Z,72
2019-03-23T13:06:14.859Z,72
2019-03-23T13:07:16.899Z,72
2019-03-23T13:08:19.313Z,72
2019-03-23T13:09:21.354Z,72
2019-03-23T13:10:23.388Z,72
2019-03-23T13:11:36.785Z,72
2019-03-23T13:12:38.832Z,72
2019-03-23T13:13:40.879Z,72
2019-03-23T13:14:42.899Z,72
2019-03-23T13:15:44.951Z,72
2019-03-23T13:16:46.985Z,72
2019-03-23T13:17:49.038Z,73
2019-03-23T13:18:51.091Z,73
2019-03-23T13:19:53.118Z,73
2019-03-23T13:20:55.159Z,73
2019-03-23T13:21:57.196Z,73
2019-03-23T13:22:59.250Z,73
2019-03-23T13:24:01.289Z,73
2019-03-23T13:25:04.002Z,73
2019-03-23T13:26:06.040Z,73
2019-03-23T13:27:08.090Z,73
2019-03-23T13:28:10.114Z,73
2019-03-23T13:29:12.155Z,73
2019-03-23T13:30:14.205Z,73
2019-03-23T13:31:16.268Z,73
2019-03-23T13:32:18.299Z,73
2019-03-23T13:33:20.351Z,73
2019-03-23T13:34:22.383Z,73
2019-03-23T13:35:24.699Z,73
2019-03-23T13:36:26.749Z,73
2019-03-23T13:37:29.066Z,74
2019-03-23T13:38:31.100Z,73
2019-03-23T13:39:33.149Z,74
2019-03-23T13:40:35.186Z,73
2019-03-23T13:41:45.558Z,74
2019-03-23T13:42:47.594Z,74
2019-03-23T13:43:49.622Z,74
2019-03-23T13:44:51.662Z,73
2019-03-23T13:45:53.702Z,73
2019-03-23T13:46:55.768Z,74
2019-03-23T13:47:57.796Z,74
2019-03-23T13:49:00.135Z,74
2019-03-23T13:50:02.168Z,73
2019-03-23T13:51:04.215Z,73
2019-03-23T13:52:06.536Z,73
2019-03-23T13:53:08.567Z,73
2019-03-23T13:54:10.604Z,73
2019-03-23T13:55:14.254Z,73
2019-03-23T13:56:16.299Z,73
2019-03-23T13:57:18.322Z,73
2019-03-23T13:58:20.377Z,73
2019-03-23T13:59:22.441Z,72
2019-03-23T14:00:24.484Z,72
2019-03-23T14:01:26.921Z,71
2019-03-23T14:02:28.965Z,71
2019-03-23T14:03:31.010Z,70
2019-03-23T14:04:33.045Z,70
2019-03-23T14:05:35.075Z,70
2019-03-23T14:06:37.118Z,69
2019-03-23T14:07:39.193Z,69
2019-03-23T14:08:41.226Z,69
2019-03-23T14:09:43.267Z,69
2019-03-23T14:10:45.302Z,67
2019-03-23T14:11:56.118Z,68
2019-03-23T14:12:58.180Z,67
2019-03-23T14:14:00.212Z,67
2019-03-23T14:15:02.270Z,68
2019-03-23T14:16:04.696Z,67
2019-03-23T14:17:07.007Z,67
2019-03-23T14:18:09.048Z,67
2019-03-23T14:19:11.089Z,67
2019-03-23T14:20:13.133Z,67
2019-03-23T14:21:15.159Z,66
2019-03-23T14:22:17.219Z,65
2019-03-23T14:23:19.254Z,64
2019-03-23T14:24:21.288Z,65
2019-03-23T14:25:23.340Z,64
2019-03-23T14:26:25.754Z,64
2019-03-23T14:27:28.105Z,64
2019-03-23T14:28:30.419Z,65
2019-03-23T14:29:32.478Z,64
2019-03-23T14:30:34.502Z,65
2019-03-23T14:31:36.547Z,64
2019-03-23T14:32:38.591Z,64
2019-03-23T14:33:41.533Z,64
2019-03-23T14:34:43.581Z,64
2019-03-23T14:35:45.630Z,64
2019-03-23T14:36:48.004Z,64
2019-03-23T14:37:50.614Z,64
2019-03-23T14:38:53.048Z,64
2019-03-23T14:39:55.374Z,65
2019-03-23T14:40:57.407Z,65
2019-03-23T14:42:06.325Z,65
2019-03-23T14:43:08.374Z,65
2019-03-23T14:44:10.688Z,65
2019-03-23T14:45:12.726Z,65
2019-03-23T14:46:16.314Z,65
2019-03-23T14:47:18.356Z,66
2019-03-23T14:48:20.393Z,66
2019-03-23T14:49:22.439Z,66
2019-03-23T14:50:24.477Z,65